createdAt,value
2019-01-15T00:01:50.676Z,102004.72
2019-01-15T00:04:22.329Z,102012.05
2019-01-15T00:06:51.911Z,101996.16
2019-01-15T00:09:22.539Z,102001.23
2019-01-15T00:11:52.214Z,102001.36
2019-01-15T00:14:21.287Z,102003.02
2019-01-15T00:16:53.310Z,102006.14
2019-01-15T00:19:25.121Z,101996.05
2019-01-15T00:21:55.999Z,102001.39
2019-01-15T00:24:26.357Z,101996.00
2019-01-15T00:26:58.606Z,101999.51
2019-01-15T00:29:28.466Z,101990.27
2019-01-15T00:31:59.336Z,101997.79
2019-01-15T00:34:28.416Z,101990.67
2019-01-15T00:36:57.847Z,101994.06
2019-01-15T00:39:31.885Z,101981.64
2019-01-15T00:42:02.780Z,101985.35
2019-01-15T00:44:38.007Z,101981.77
2019-01-15T00:47:10.695Z,101987.34
2019-01-15T00:49:42.585Z,101976.88
2019-01-15T00:52:13.357Z,101977.28
2019-01-15T00:54:46.706Z,101978.17
2019-01-15T00:57:16.043Z,101981.95
2019-01-15T00:59:48.269Z,101976.91
2019-01-15T01:02:19.250Z,101979.89
2019-01-15T01:04:49.674Z,101979.42
2019-01-15T01:07:19.064Z,101983.91
2019-01-15T01:09:48.500Z,101978.25
2019-01-15T01:12:22.132Z,101980.47
2019-01-15T01:14:49.827Z,101978.87
2019-01-15T01:17:18.988Z,101973.34
2019-01-15T01:19:48.669Z,101973.53
2019-01-15T01:22:18.521Z,101970.70
2019-01-15T01:24:48.425Z,101965.91
2019-01-15T01:27:17.887Z,101963.09
2019-01-15T01:29:47.446Z,101962.91
2019-01-15T01:32:17.529Z,101959.23
2019-01-15T01:34:47.252Z,101966.39
2019-01-15T01:37:17.004Z,101964.84
2019-01-15T01:39:46.880Z,101961.28
2019-01-15T01:42:16.622Z,101955.38
2019-01-15T01:44:46.275Z,101959.00
2019-01-15T01:47:15.418Z,101954.78
2019-01-15T01:49:45.170Z,101952.84
2019-01-15T01:52:14.990Z,101947.68
2019-01-15T01:54:44.927Z,101954.34
2019-01-15T01:57:14.813Z,101961.00
2019-01-15T01:59:44.670Z,101961.53
2019-01-15T02:02:14.673Z,101958.22
2019-01-15T02:04:44.473Z,101948.00
2019-01-15T02:07:14.393Z,101953.54
2019-01-15T02:09:44.294Z,101950.95
2019-01-15T02:12:13.753Z,101948.13
2019-01-15T02:14:43.507Z,101946.90
2019-01-15T02:17:13.226Z,101947.02
2019-01-15T02:19:43.093Z,101949.48
2019-01-15T02:22:12.748Z,101957.16
2019-01-15T02:24:42.972Z,101955.68
2019-01-15T02:27:12.683Z,101955.80
2019-01-15T02:29:42.160Z,101952.11
2019-01-15T02:32:11.925Z,101949.28
2019-01-15T02:34:41.784Z,101951.53
2019-01-15T02:37:11.495Z,101953.98
2019-01-15T02:39:40.940Z,101950.78
2019-01-15T02:42:10.798Z,101961.24
2019-01-15T02:44:40.642Z,101963.73
2019-01-15T02:47:10.449Z,101961.27
2019-01-15T02:49:40.478Z,101963.36
2019-01-15T02:52:10.297Z,101964.34
2019-01-15T02:54:39.975Z,101957.58
2019-01-15T02:57:09.698Z,101955.72
2019-01-15T02:59:38.676Z,101963.38
2019-01-15T03:02:08.368Z,101967.54
2019-01-15T03:04:37.880Z,101960.89
2019-01-15T03:07:07.498Z,101963.11
2019-01-15T03:09:36.686Z,101965.81
2019-01-15T03:12:06.128Z,101965.07
2019-01-15T03:14:36.194Z,101958.67
2019-01-15T03:17:05.893Z,101961.12
2019-01-15T03:19:35.732Z,101939.59
2019-01-15T03:22:05.475Z,101958.67
2019-01-15T03:24:35.145Z,101963.83
2019-01-15T03:27:05.236Z,101961.61
2019-01-15T03:29:34.840Z,101967.02
2019-01-15T03:32:04.820Z,101962.72
2019-01-15T03:34:34.639Z,101956.70
2019-01-15T03:37:04.315Z,101957.44
2019-01-15T03:39:34.297Z,101954.75
2019-01-15T03:42:04.090Z,101953.65
2019-01-15T03:44:33.872Z,101951.44
2019-01-15T03:47:03.674Z,101952.42
2019-01-15T03:49:33.411Z,101955.34
2019-01-15T03:52:03.197Z,101955.34
2019-01-15T03:54:32.740Z,101949.59
2019-01-15T03:57:02.627Z,101947.12
2019-01-15T03:59:32.365Z,101947.36
2019-01-15T04:02:02.298Z,101943.91
2019-01-15T04:04:31.994Z,101942.67
2019-01-15T04:07:01.943Z,101936.67
2019-01-15T04:09:31.583Z,101940.84
2019-01-15T04:12:01.598Z,101939.73
2019-01-15T04:14:30.752Z,101942.06
2019-01-15T04:17:00.791Z,101929.39
2019-01-15T04:19:30.438Z,101928.50
2019-01-15T04:22:00.292Z,101923.86
2019-01-15T04:24:30.009Z,101928.40
2019-01-15T04:26:59.770Z,101928.40
2019-01-15T04:29:29.928Z,101928.52
2019-01-15T04:31:59.991Z,101927.16
2019-01-15T04:34:29.746Z,101921.76
2019-01-15T04:36:59.241Z,101918.94
2019-01-15T04:39:28.824Z,101922.25
2019-01-15T04:41:58.626Z,101921.50
2019-01-15T04:44:28.557Z,101919.78
2019-01-15T04:46:58.475Z,101920.02
2019-01-15T04:49:28.255Z,101915.22
2019-01-15T04:51:57.822Z,101920.63
2019-01-15T04:54:27.912Z,101915.22
2019-01-15T04:56:58.124Z,101915.83
2019-01-15T04:59:27.628Z,101916.80
2019-01-15T05:01:57.660Z,101908.32
2019-01-15T05:04:27.169Z,101909.42
2019-01-15T05:07:02.847Z,101907.58
2019-01-15T05:09:32.638Z,101900.45
2019-01-15T05:12:02.503Z,101903.79
2019-01-15T05:14:32.399Z,101899.97
2019-01-15T05:17:02.174Z,101897.76
2019-01-15T05:19:31.554Z,101891.00
2019-01-15T05:22:01.465Z,101898.02
2019-01-15T05:24:31.300Z,101899.48
2019-01-15T05:27:00.924Z,101894.69
2019-01-15T05:29:30.636Z,101891.95
2019-01-15T05:32:00.615Z,101892.42
2019-01-15T05:34:30.413Z,101894.16
2019-01-15T05:36:59.885Z,101897.95
2019-01-15T05:39:29.609Z,101896.22
2019-01-15T05:41:59.357Z,101897.20
2019-01-15T05:44:29.230Z,101895.11
2019-01-15T05:46:58.753Z,101898.30
2019-01-15T05:49:28.481Z,101895.22
2019-01-15T05:51:58.266Z,101895.70
2019-01-15T05:54:28.076Z,101904.30
2019-01-15T05:56:57.850Z,101901.34
2019-01-15T05:59:27.474Z,101906.36
2019-01-15T06:01:57.301Z,101909.67
2019-01-15T06:04:27.022Z,101914.70
2019-01-15T06:06:56.519Z,101914.36
2019-01-15T06:09:26.265Z,101913.98
2019-01-15T06:11:56.058Z,101917.17
2019-01-15T06:14:25.650Z,101913.84
2019-01-15T06:16:55.097Z,101915.15
2019-01-15T06:19:24.870Z,101920.89
2019-01-15T06:21:54.681Z,101919.42
2019-01-15T06:24:24.502Z,101920.25
2019-01-15T06:26:54.199Z,101925.77
2019-01-15T06:29:24.085Z,101928.95
2019-01-15T06:31:53.399Z,101927.22
2019-01-15T06:34:23.107Z,101937.42
2019-01-15T06:36:52.921Z,101938.39
2019-01-15T06:39:22.355Z,101941.31
2019-01-15T06:41:52.079Z,101935.44
2019-01-15T06:44:21.969Z,101945.48
2019-01-15T06:46:51.782Z,101951.73
2019-01-15T06:49:21.302Z,101951.63
2019-01-15T06:51:50.802Z,101954.81
2019-01-15T06:54:20.644Z,101959.23
2019-01-15T06:56:51.992Z,101955.78
2019-01-15T06:59:21.885Z,101960.81
2019-01-15T07:01:51.498Z,101958.59
2019-01-15T07:04:20.992Z,101957.52
2019-01-15T07:06:50.771Z,101961.19
2019-01-15T07:09:20.639Z,101964.27
2019-01-15T07:11:50.124Z,101952.48
2019-01-15T07:14:19.752Z,101965.39
2019-01-15T07:16:49.191Z,101960.85
2019-01-15T07:19:18.534Z,101967.49
2019-01-15T07:21:48.291Z,101969.59
2019-01-15T07:24:17.935Z,101968.73
2019-01-15T07:26:47.354Z,101968.84
2019-01-15T07:29:17.399Z,101969.81
2019-01-15T07:31:46.905Z,101974.23
2019-01-15T07:34:16.725Z,101967.98
2019-01-15T07:36:46.654Z,101976.56
2019-01-15T07:39:16.401Z,101970.41
2019-01-15T07:41:46.109Z,101972.63
2019-01-15T07:44:15.577Z,101972.73
2019-01-15T07:46:45.185Z,101973.22
2019-01-15T07:49:15.436Z,101971.50
2019-01-15T07:51:45.487Z,101972.84
2019-01-15T07:54:14.786Z,101971.02
2019-01-15T07:56:44.413Z,101975.17
2019-01-15T07:59:14.250Z,101966.80
2019-01-15T08:01:44.617Z,101970.48
2019-01-15T08:04:14.056Z,101976.96
2019-01-15T08:06:44.077Z,101975.75
2019-01-15T08:09:13.376Z,101974.41
2019-01-15T08:11:42.883Z,101978.08
2019-01-15T08:14:12.471Z,101980.77
2019-01-15T08:16:41.852Z,101975.27
2019-01-15T08:19:11.041Z,101987.41
2019-01-15T08:21:40.639Z,101986.67
2019-01-15T08:24:10.591Z,101984.73
2019-01-15T08:26:40.110Z,101992.23
2019-01-15T08:29:09.402Z,101989.69
2019-01-15T08:31:39.007Z,101990.59
2019-01-15T08:34:08.017Z,101986.66
2019-01-15T08:36:38.155Z,101998.37
2019-01-15T08:39:08.768Z,101993.49
2019-01-15T08:41:38.692Z,102003.81
2019-01-15T08:44:08.382Z,102007.53
2019-01-15T08:46:38.318Z,102007.80
2019-01-15T08:49:07.668Z,102015.30
2019-01-15T08:51:38.322Z,102017.77
2019-01-15T08:54:08.328Z,102022.35
2019-01-15T08:56:38.126Z,102025.55
2019-01-15T08:59:07.832Z,102027.30
2019-01-15T09:01:37.547Z,102024.41
2019-01-15T09:04:07.080Z,102025.65
2019-01-15T09:06:36.762Z,102028.64
2019-01-15T09:09:08.123Z,102035.42
2019-01-15T09:11:37.918Z,102037.55
2019-01-15T09:14:07.624Z,102036.50
2019-01-15T09:16:37.485Z,102036.03
2019-01-15T09:19:06.480Z,102042.81
2019-01-15T09:21:35.651Z,102044.30
2019-01-15T09:24:04.597Z,102047.27
2019-01-15T09:26:34.512Z,102042.95
2019-01-15T09:29:03.686Z,102036.53
2019-01-15T09:31:32.792Z,102033.28
2019-01-15T09:34:02.256Z,102046.05
2019-01-15T09:36:31.958Z,102041.93
2019-01-15T09:39:01.490Z,102047.52
2019-01-15T09:41:30.673Z,102053.10
2019-01-15T09:44:03.405Z,102051.25
2019-01-15T09:46:33.645Z,102036.95
2019-01-15T09:49:03.067Z,102047.59
2019-01-15T09:51:33.008Z,102047.18
2019-01-15T09:54:02.515Z,102047.20
2019-01-15T09:56:32.238Z,102052.37
2019-01-15T09:59:02.252Z,102052.83
2019-01-15T10:01:31.927Z,102052.90
2019-01-15T10:04:02.213Z,102054.68
2019-01-15T10:06:32.151Z,102055.09
2019-01-15T10:09:01.191Z,102058.06
2019-01-15T10:11:30.275Z,102058.44
2019-01-15T10:14:00.356Z,102056.75
2019-01-15T10:16:30.049Z,102048.85
2019-01-15T10:18:59.198Z,102051.02
2019-01-15T10:21:28.700Z,102053.51
2019-01-15T10:23:57.951Z,102045.67
2019-01-15T10:26:27.704Z,102047.28
2019-01-15T10:28:57.277Z,102045.62
2019-01-15T10:31:50.955Z,102049.58
2019-01-15T10:34:21.804Z,102051.67
2019-01-15T10:36:53.396Z,102050.28
2019-01-15T10:39:22.912Z,102049.68
2019-01-15T10:41:52.883Z,102058.30
2019-01-15T10:44:22.888Z,102061.10
2019-01-15T10:46:52.714Z,102050.89
2019-01-15T10:49:21.877Z,102050.91
2019-01-15T10:51:51.390Z,102053.50
2019-01-15T10:54:20.849Z,102053.34
2019-01-15T10:56:50.183Z,102047.70
2019-01-15T10:59:19.888Z,102045.48
2019-01-15T11:01:49.376Z,102047.88
2019-01-15T11:04:19.344Z,102047.53
2019-01-15T11:06:49.218Z,102043.39
2019-01-15T11:15:14.822Z,102034.16
2019-01-15T11:26:26.124Z,102022.08
2019-01-15T11:34:38.994Z,102026.48
2019-01-15T11:37:12.963Z,102015.08
2019-01-15T11:39:42.538Z,102014.83
2019-01-15T13:38:09.347Z,101852.89
2019-01-15T13:40:55.497Z,101848.27
2019-01-15T13:43:51.699Z,101842.29
2019-01-15T13:46:40.547Z,101846.97
2019-01-15T13:49:11.838Z,101813.19
2019-01-15T13:51:43.306Z,101829.06
2019-01-15T13:54:30.670Z,101828.44
2019-01-15T13:57:02.184Z,101832.36
2019-01-15T13:59:32.986Z,101833.95
2019-01-15T14:02:19.451Z,101833.94
2019-01-15T14:04:53.149Z,101825.05
2019-01-15T14:07:36.728Z,101829.72
2019-01-15T14:10:19.362Z,101825.45
2019-01-15T14:12:53.806Z,101829.61
2019-01-15T14:15:24.738Z,101824.75
2019-01-15T14:18:13.677Z,101821.81
2019-01-15T14:20:57.134Z,101818.66
2019-01-15T14:23:43.509Z,101823.09
2019-01-15T14:26:20.985Z,101816.42
2019-01-15T14:28:58.704Z,101913.09
2019-01-15T14:31:33.781Z,101815.38
2019-01-15T14:34:10.481Z,101810.84
2019-01-15T14:36:50.678Z,101816.34
2019-01-15T14:39:21.594Z,101809.36
2019-01-15T14:42:14.327Z,101815.85
2019-01-15T14:44:48.016Z,101810.54
2019-01-15T14:47:18.740Z,101814.20
2019-01-15T14:50:05.612Z,101815.69
2019-01-15T14:52:51.816Z,101817.03
2019-01-15T14:55:39.578Z,101813.40
2019-01-15T14:58:28.539Z,101806.39
2019-01-15T15:01:15.993Z,101805.54
2019-01-15T15:03:46.631Z,101803.97
2019-01-15T15:06:20.968Z,101810.90
2019-01-15T15:09:08.012Z,101806.59
2019-01-15T15:11:47.766Z,101808.86
2019-01-15T15:14:18.763Z,101811.41
2019-01-15T15:16:49.465Z,101805.52
2019-01-15T15:19:24.383Z,101806.15
2019-01-15T15:21:59.114Z,101805.43
2019-01-15T15:24:30.021Z,101807.33
2019-01-15T15:27:06.839Z,101811.03
2019-01-15T15:29:37.553Z,101812.75
2019-01-15T15:32:08.204Z,101813.29
2019-01-15T15:34:50.895Z,101810.70
2019-01-15T15:37:21.575Z,101818.95
2019-01-15T15:39:58.889Z,101813.42
2019-01-15T15:42:37.103Z,101815.33
2019-01-15T15:45:11.719Z,101812.23
2019-01-15T15:47:55.974Z,101809.19
2019-01-15T15:50:30.198Z,101812.79
2019-01-15T15:53:19.652Z,101809.72
2019-01-15T15:55:51.788Z,101814.89
2019-01-15T15:58:26.809Z,101806.75
2019-01-15T16:01:09.736Z,101811.42
2019-01-15T16:03:46.963Z,101819.19
2019-01-15T16:06:33.961Z,101815.63
2019-01-15T16:09:07.592Z,101817.64
2019-01-15T16:11:53.981Z,101818.07
2019-01-15T16:14:24.858Z,101800.36
2019-01-15T16:17:01.035Z,101834.84
2019-01-15T16:19:49.962Z,101830.16
2019-01-15T16:22:21.544Z,101833.18
2019-01-15T16:25:07.894Z,101835.74
2019-01-15T16:27:54.875Z,101827.23
2019-01-15T16:30:37.645Z,101833.19
2019-01-15T16:33:17.303Z,101829.04
2019-01-15T16:35:51.190Z,101835.64
2019-01-15T16:38:39.051Z,101838.97
2019-01-15T16:41:16.011Z,101843.22
2019-01-15T16:44:04.941Z,101837.80
2019-01-15T16:46:41.757Z,101837.91
2019-01-15T16:49:12.937Z,101840.37
2019-01-15T16:51:53.498Z,101835.65
2019-01-15T16:54:35.307Z,101840.02
2019-01-15T16:57:09.547Z,101840.96
2019-01-15T16:59:52.463Z,101841.38
2019-01-15T17:02:26.117Z,101841.77
2019-01-15T17:04:59.810Z,101846.58
2019-01-15T17:07:31.297Z,101849.48
2019-01-15T17:10:01.998Z,101842.83
2019-01-15T17:12:36.162Z,101838.95
2019-01-15T17:15:16.837Z,101851.61
2019-01-15T17:18:04.006Z,101852.31
2019-01-15T17:20:38.714Z,101862.75
2019-01-15T17:23:15.314Z,101856.79
2019-01-15T17:25:55.205Z,101863.40
2019-01-15T17:28:32.215Z,101859.92
2019-01-15T17:31:19.215Z,101849.16
2019-01-15T17:34:02.304Z,101861.23
2019-01-15T17:36:36.451Z,101836.55
2019-01-15T17:39:26.865Z,101867.08
2019-01-15T17:42:00.162Z,101871.75
2019-01-15T17:44:31.061Z,101870.44
2019-01-15T17:47:18.103Z,101873.48
2019-01-15T17:50:06.173Z,101873.16
2019-01-15T17:52:43.804Z,101859.88
2019-01-15T17:55:18.964Z,101851.80
2019-01-15T17:57:58.700Z,101881.20
2019-01-15T18:00:36.195Z,101885.53
2019-01-15T18:03:23.261Z,101883.13
2019-01-15T18:05:54.363Z,101885.05
2019-01-15T18:08:30.969Z,101891.48
2019-01-15T18:11:05.289Z,101884.30
2019-01-15T18:13:36.081Z,101890.81
2019-01-15T18:16:23.071Z,101893.28
2019-01-15T18:19:06.140Z,101891.97
2019-01-15T18:21:43.190Z,101899.27
2019-01-15T18:24:32.540Z,101902.28
2019-01-15T18:27:03.418Z,101903.04
2019-01-15T18:29:46.731Z,101907.02
2019-01-15T18:32:34.507Z,101914.09
2019-01-15T18:35:05.504Z,101914.61
2019-01-15T18:37:36.074Z,101913.97
2019-01-15T18:40:25.964Z,101918.08
2019-01-15T18:42:56.707Z,101915.37
2019-01-15T18:45:33.252Z,101922.91
2019-01-15T18:48:06.673Z,101916.73
2019-01-15T18:50:49.452Z,101917.42
2019-01-15T18:53:26.003Z,101922.03
2019-01-15T18:55:56.926Z,101925.98
2019-01-15T18:58:27.847Z,101920.48
2019-01-15T19:01:08.142Z,101921.51
2019-01-15T19:03:47.874Z,101924.22
2019-01-15T19:06:34.833Z,101929.68
2019-01-15T19:09:21.632Z,101928.64
2019-01-15T19:12:01.923Z,101923.47
2019-01-15T19:14:42.084Z,101926.70
2019-01-15T19:17:12.832Z,101934.86
2019-01-15T19:19:49.601Z,101937.75
2019-01-15T19:22:20.486Z,101935.47
2019-01-15T19:24:54.073Z,101935.43
2019-01-15T19:27:33.933Z,101937.75
2019-01-15T19:30:07.634Z,101947.80
2019-01-15T19:32:54.932Z,101943.98
2019-01-15T19:35:28.772Z,101946.62
2019-01-15T19:38:14.831Z,101940.23
2019-01-15T19:41:02.122Z,101944.80
2019-01-15T19:43:51.712Z,101941.33
2019-01-15T19:46:28.594Z,101947.77
2019-01-15T19:49:18.133Z,101945.80
2019-01-15T19:52:00.874Z,101948.30
2019-01-15T19:54:34.312Z,101945.16
2019-01-15T19:57:08.722Z,101941.69
2019-01-15T19:59:55.652Z,101943.16
2019-01-15T20:02:32.651Z,101945.14
2019-01-15T20:05:15.483Z,101941.38
2019-01-15T20:07:46.244Z,101939.47
2019-01-15T20:10:32.086Z,101938.56
2019-01-15T20:13:02.964Z,101945.78
2019-01-15T20:15:36.602Z,101942.28
2019-01-15T20:18:10.326Z,101952.28
2019-01-15T20:20:50.045Z,101941.45
